sensor_id;sensor_type;location;lat;lon;timestamp;pressure;altitude;pressure_sealevel;temperature;humidity
50057;BME280;36875;49.468;11.200;2024-03-06T00:01:04;97876.16;;;20.50;40.19
50057;BME280;36875;49.468;11.200;2024-03-06T00:03:30;97878.22;;;20.44;40.06
50057;BME280;36875;49.468;11.200;2024-03-06T00:05:55;97879.81;;;20.45;39.88
50057;BME280;36875;49.468;11.200;2024-03-06T00:08:20;97880.47;;;20.42;40.23
50057;BME280;36875;49.468;11.200;2024-03-06T00:10:46;97884.13;;;20.37;40.07
50057;BME280;36875;49.468;11.200;2024-03-06T00:13:13;97886.34;;;20.35;40.05
50057;BME280;36875;49.468;11.200;2024-03-06T00:15:39;97885.06;;;20.33;40.22
50057;BME280;36875;49.468;11.200;2024-03-06T00:18:04;97897.91;;;20.32;40.11
50057;BME280;36875;49.468;11.200;2024-03-06T00:20:30;97901.78;;;20.31;40.42
50057;BME280;36875;49.468;11.200;2024-03-06T00:22:55;97904.81;;;20.30;40.16
50057;BME280;36875;49.468;11.200;2024-03-06T00:25:21;97910.91;;;20.27;40.45
50057;BME280;36875;49.468;11.200;2024-03-06T00:27:46;97916.69;;;20.25;40.48
50057;BME280;36875;49.468;11.200;2024-03-06T00:30:14;97914.09;;;20.20;40.62
50057;BME280;36875;49.468;11.200;2024-03-06T00:32:39;97916.00;;;20.19;40.54
50057;BME280;36875;49.468;11.200;2024-03-06T00:35:05;97916.94;;;20.15;40.52
50057;BME280;36875;49.468;11.200;2024-03-06T00:37:30;97924.84;;;20.16;40.55
50057;BME280;36875;49.468;11.200;2024-03-06T00:39:55;97924.84;;;20.16;40.31
50057;BME280;36875;49.468;11.200;2024-03-06T00:42:20;97920.00;;;20.13;40.23
50057;BME280;36875;49.468;11.200;2024-03-06T00:44:46;97923.03;;;20.12;40.40
50057;BME280;36875;49.468;11.200;2024-03-06T00:47:12;97914.66;;;20.08;40.38
50057;BME280;36875;49.468;11.200;2024-03-06T00:49:38;97921.25;;;20.07;40.78
50057;BME280;36875;49.468;11.200;2024-03-06T00:52:04;97923.66;;;20.09;40.41
50057;BME280;36875;49.468;11.200;2024-03-06T00:54:29;97917.50;;;20.03;40.66
50057;BME280;36875;49.468;11.200;2024-03-06T00:56:54;97921.06;;;20.03;40.42
50057;BME280;36875;49.468;11.200;2024-03-06T00:59:20;97922.97;;;20.03;40.50
50057;BME280;36875;49.468;11.200;2024-03-06T01:01:45;97915.41;;;20.00;40.43
50057;BME280;36875;49.468;11.200;2024-03-06T01:04:12;97921.19;;;19.98;40.62
50057;BME280;36875;49.468;11.200;2024-03-06T01:06:37;97921.50;;;19.97;40.50
50057;BME280;36875;49.468;11.200;2024-03-06T01:09:03;97912.50;;;19.96;40.76
50057;BME280;36875;49.468;11.200;2024-03-06T01:11:28;97919.66;;;19.92;40.66
50057;BME280;36875;49.468;11.200;2024-03-06T01:13:53;97923.84;;;19.90;40.71
50057;BME280;36875;49.468;11.200;2024-03-06T01:16:18;97924.94;;;19.89;40.89
50057;BME280;36875;49.468;11.200;2024-03-06T01:18:44;97920.13;;;19.86;40.74
50057;BME280;36875;49.468;11.200;2024-03-06T01:21:11;97925.59;;;19.86;40.96
50057;BME280;36875;49.468;11.200;2024-03-06T01:23:36;97919.31;;;19.85;40.58
50057;BME280;36875;49.468;11.200;2024-03-06T01:26:01;97910.00;;;19.86;40.86
50057;BME280;36875;49.468;11.200;2024-03-06T01:28:26;97910.94;;;19.81;40.72
50057;BME280;36875;49.468;11.200;2024-03-06T01:30:52;97911.25;;;19.80;40.60
50057;BME280;36875;49.468;11.200;2024-03-06T01:33:17;97903.34;;;19.78;40.94
50057;BME280;36875;49.468;11.200;2024-03-06T01:35:42;97905.59;;;19.76;40.85
50057;BME280;36875;49.468;11.200;2024-03-06T01:38:09;97900.44;;;19.75;41.00
50057;BME280;36875;49.468;11.200;2024-03-06T01:40:35;97902.38;;;19.74;40.93
50057;BME280;36875;49.468;11.200;2024-03-06T01:43:00;97904.56;;;19.72;40.74
50057;BME280;36875;49.468;11.200;2024-03-06T01:45:26;97917.72;;;19.70;40.99
50057;BME280;36875;49.468;11.200;2024-03-06T01:47:51;97917.22;;;19.68;41.08
50057;BME280;36875;49.468;11.200;2024-03-06T01:50:17;97920.25;;;19.67;40.98
50057;BME280;36875;49.468;11.200;2024-03-06T01:52:42;97924.41;;;19.64;40.84
50057;BME280;36875;49.468;11.200;2024-03-06T01:55:10;97923.31;;;19.65;40.85
50057;BME280;36875;49.468;11.200;2024-03-06T01:57:36;97918.94;;;19.64;40.97
50057;BME280;36875;49.468;11.200;2024-03-06T02:00:04;97919.75;;;19.64;40.78
50057;BME280;36875;49.468;11.200;2024-03-06T02:02:30;97896.03;;;19.51;40.82
50057;BME280;36875;49.468;11.200;2024-03-06T02:04:55;97919.25;;;19.62;41.08
50057;BME280;36875;49.468;11.200;2024-03-06T02:07:22;97919.88;;;19.59;40.85
50057;BME280;36875;49.468;11.200;2024-03-06T02:09:49;97924.53;;;19.59;40.87
50057;BME280;36875;49.468;11.200;2024-03-06T02:12:16;97922.09;;;19.57;40.74
50057;BME280;36875;49.468;11.200;2024-03-06T02:14:41;97920.78;;;19.55;40.93
50057;BME280;36875;49.468;11.200;2024-03-06T02:17:06;97921.09;;;19.53;40.91
50057;BME280;36875;49.468;11.200;2024-03-06T02:19:38;97908.59;;;19.52;41.19
50057;BME280;36875;49.468;11.200;2024-03-06T02:22:05;97902.28;;;19.52;41.07
50057;BME280;36875;49.468;11.200;2024-03-06T02:24:31;97906.47;;;19.49;41.03
50057;BME280;36875;49.468;11.200;2024-03-06T02:26:56;97907.56;;;19.48;41.04
50057;BME280;36875;49.468;11.200;2024-03-06T02:29:23;97894.25;;;19.47;41.06
50057;BME280;36875;49.468;11.200;2024-03-06T02:31:48;97910.63;;;19.47;41.01
50057;BME280;36875;49.468;11.200;2024-03-06T02:34:13;97901.31;;;19.48;40.98
50057;BME280;36875;49.468;11.200;2024-03-06T02:36:39;97901.41;;;19.42;41.20
50057;BME280;36875;49.468;11.200;2024-03-06T02:39:06;97897.09;;;19.41;40.93
50057;BME280;36875;49.468;11.200;2024-03-06T02:41:34;97898.50;;;19.39;41.07
50057;BME280;36875;49.468;11.200;2024-03-06T02:43:59;97897.69;;;19.38;41.05
50057;BME280;36875;49.468;11.200;2024-03-06T02:46:24;97891.44;;;19.38;41.15
50057;BME280;36875;49.468;11.200;2024-03-06T02:48:49;97893.66;;;19.36;40.90
50057;BME280;36875;49.468;11.200;2024-03-06T02:51:17;97895.56;;;19.35;41.05
50057;BME280;36875;49.468;11.200;2024-03-06T02:53:43;97902.97;;;19.35;41.05
50057;BME280;36875;49.468;11.200;2024-03-06T02:56:15;97904.09;;;19.34;41.18
50057;BME280;36875;49.468;11.200;2024-03-06T02:58:40;97905.50;;;19.31;40.98
50057;BME280;36875;49.468;11.200;2024-03-06T03:01:05;97902.25;;;19.29;41.02
50057;BME280;36875;49.468;11.200;2024-03-06T03:03:31;97898.75;;;19.29;41.07
50057;BME280;36875;49.468;11.200;2024-03-06T03:05:56;97902.06;;;19.25;41.03
50057;BME280;36875;49.468;11.200;2024-03-06T03:08:22;97899.63;;;19.24;41.24
50057;BME280;36875;49.468;11.200;2024-03-06T03:10:47;97892.28;;;19.24;41.16
50057;BME280;36875;49.468;11.200;2024-03-06T03:13:14;97885.69;;;19.25;41.03
50057;BME280;36875;49.468;11.200;2024-03-06T03:15:39;97884.41;;;19.23;41.14
50057;BME280;36875;49.468;11.200;2024-03-06T03:18:06;97880.34;;;19.20;41.19
50057;BME280;36875;49.468;11.200;2024-03-06T03:20:32;97885.00;;;19.20;41.23
50057;BME280;36875;49.468;11.200;2024-03-06T03:22:57;97889.66;;;19.19;41.06
50057;BME280;36875;49.468;11.200;2024-03-06T03:25:22;97888.88;;;19.19;41.23
50057;BME280;36875;49.468;11.200;2024-03-06T03:27:48;97887.22;;;19.18;41.20
50057;BME280;36875;49.468;11.200;2024-03-06T03:30:15;97893.28;;;19.15;41.32
50057;BME280;36875;49.468;11.200;2024-03-06T03:32:41;97894.91;;;19.16;41.14
50057;BME280;36875;49.468;11.200;2024-03-06T03:35:06;97893.94;;;19.12;41.42
50057;BME280;36875;49.468;11.200;2024-03-06T03:37:32;97895.03;;;19.11;41.22
50057;BME280;36875;49.468;11.200;2024-03-06T03:39:57;97899.38;;;19.12;41.26
50057;BME280;36875;49.468;11.200;2024-03-06T03:42:22;97903.22;;;19.11;41.33
50057;BME280;36875;49.468;11.200;2024-03-06T03:44:48;97901.56;;;19.10;41.42
50057;BME280;36875;49.468;11.200;2024-03-06T03:47:15;97901.91;;;19.08;41.24
50057;BME280;36875;49.468;11.200;2024-03-06T03:49:40;97896.75;;;19.06;41.23
50057;BME280;36875;49.468;11.200;2024-03-06T03:52:05;97898.69;;;19.06;41.08
50057;BME280;36875;49.468;11.200;2024-03-06T03:54:31;97898.47;;;19.02;41.27
50057;BME280;36875;49.468;11.200;2024-03-06T03:56:56;97907.47;;;19.03;41.38
50057;BME280;36875;49.468;11.200;2024-03-06T03:59:24;97909.69;;;19.01;41.23
50057;BME280;36875;49.468;11.200;2024-03-06T04:01:49;97912.41;;;19.01;41.31
50057;BME280;36875;49.468;11.200;2024-03-06T04:04:16;97908.38;;;18.98;41.66
50057;BME280;36875;49.468;11.200;2024-03-06T04:06:42;97918.47;;;18.98;41.25
50057;BME280;36875;49.468;11.200;2024-03-06T04:09:07;97914.66;;;18.99;41.35
50057;BME280;36875;49.468;11.200;2024-03-06T04:11:35;97922.31;;;18.97;41.63
50057;BME280;36875;49.468;11.200;2024-03-06T04:14:01;97928.09;;;18.95;41.59
50057;BME280;36875;49.468;11.200;2024-03-06T04:16:26;97928.38;;;18.94;41.31
50057;BME280;36875;49.468;11.200;2024-03-06T04:18:51;97934.63;;;18.94;41.28
50057;BME280;36875;49.468;11.200;2024-03-06T04:21:18;97931.69;;;18.91;41.28
50057;BME280;36875;49.468;11.200;2024-03-06T04:23:43;97937.47;;;18.89;41.32
50057;BME280;36875;49.468;11.200;2024-03-06T04:26:09;97930.41;;;18.88;41.62
50057;BME280;36875;49.468;11.200;2024-03-06T04:28:34;97933.44;;;18.86;41.69
50057;BME280;36875;49.468;11.200;2024-03-06T04:30:59;97933.44;;;18.86;41.32
50057;BME280;36875;49.468;11.200;2024-03-06T04:33:25;97938.88;;;18.86;41.36
50057;BME280;36875;49.468;11.200;2024-03-06T04:35:50;97936.75;;;18.83;41.45
50057;BME280;36875;49.468;11.200;2024-03-06T04:38:17;97944.63;;;18.85;41.47
50057;BME280;36875;49.468;11.200;2024-03-06T04:40:42;97950.38;;;18.83;41.61
50057;BME280;36875;49.468;11.200;2024-03-06T04:43:07;97954.53;;;18.81;41.49
50057;BME280;36875;49.468;11.200;2024-03-06T04:45:33;97945.22;;;18.82;41.75
50057;BME280;36875;49.468;11.200;2024-03-06T04:47:58;97944.69;;;18.80;41.56
50057;BME280;36875;49.468;11.200;2024-03-06T04:50:23;97951.28;;;18.79;41.67
50057;BME280;36875;49.468;11.200;2024-03-06T04:52:49;97949.13;;;18.76;41.58
50057;BME280;36875;49.468;11.200;2024-03-06T04:55:16;97946.41;;;18.76;41.65
50057;BME280;36875;49.468;11.200;2024-03-06T04:57:45;97953.28;;;18.73;41.67
50057;BME280;36875;49.468;11.200;2024-03-06T05:00:11;97954.69;;;18.71;41.49
50057;BME280;36875;49.468;11.200;2024-03-06T05:02:36;97957.72;;;18.69;41.53
50057;BME280;36875;49.468;11.200;2024-03-06T05:05:02;97952.56;;;18.67;41.94
50057;BME280;36875;49.468;11.200;2024-03-06T05:07:28;97954.47;;;18.67;41.83
50057;BME280;36875;49.468;11.200;2024-03-06T05:09:54;97949.84;;;18.67;41.85
50057;BME280;36875;49.468;11.200;2024-03-06T05:12:21;97954.28;;;18.63;41.65
50057;BME280;36875;49.468;11.200;2024-03-06T05:14:46;97954.28;;;18.63;41.69
50057;BME280;36875;49.468;11.200;2024-03-06T05:17:11;97961.66;;;18.63;41.94
50057;BME280;36875;49.468;11.200;2024-03-06T05:19:36;97955.41;;;18.62;41.60
50057;BME280;36875;49.468;11.200;2024-03-06T05:22:02;97959.72;;;18.63;41.97
50057;BME280;36875;49.468;11.200;2024-03-06T05:24:27;97964.66;;;18.61;42.14
50057;BME280;36875;49.468;11.200;2024-03-06T05:26:53;97962.56;;;18.58;42.34
50057;BME280;36875;49.468;11.200;2024-03-06T05:29:19;97968.22;;;18.62;42.26
50057;BME280;36875;49.468;11.200;2024-03-06T05:31:45;97972.38;;;18.73;41.83
50057;BME280;36875;49.468;11.200;2024-03-06T05:34:10;97977.06;;;18.86;41.41
50057;BME280;36875;49.468;11.200;2024-03-06T05:36:35;97980.09;;;18.99;41.58
50057;BME280;36875;49.468;11.200;2024-03-06T05:39:00;97976.56;;;19.12;41.02
50057;BME280;36875;49.468;11.200;2024-03-06T05:41:26;97972.19;;;19.25;40.55
50057;BME280;36875;49.468;11.200;2024-03-06T05:43:51;97979.34;;;19.35;40.65
50057;BME280;36875;49.468;11.200;2024-03-06T05:46:18;97982.78;;;19.40;40.78
50057;BME280;36875;49.468;11.200;2024-03-06T05:48:44;97986.41;;;19.50;40.68
50057;BME280;36875;49.468;11.200;2024-03-06T05:51:09;97992.06;;;19.53;40.66
50057;BME280;36875;49.468;11.200;2024-03-06T05:53:36;97993.06;;;19.57;40.71
50057;BME280;36875;49.468;11.200;2024-03-06T05:56:01;97995.28;;;19.55;40.62
50057;BME280;36875;49.468;11.200;2024-03-06T05:58:26;98007.03;;;19.56;40.65
50057;BME280;36875;49.468;11.200;2024-03-06T06:00:51;98000.25;;;19.53;40.88
50057;BME280;36875;49.468;11.200;2024-03-06T06:03:18;98006.22;;;19.55;40.63
50057;BME280;36875;49.468;11.200;2024-03-06T06:05:43;98003.41;;;19.47;41.13
50057;BME280;36875;49.468;11.200;2024-03-06T06:08:09;98006.25;;;19.41;41.93
50057;BME280;36875;49.468;11.200;2024-03-06T06:10:34;98010.47;;;19.48;41.91
50057;BME280;36875;49.468;11.200;2024-03-06T06:13:00;98017.56;;;19.49;41.67
50057;BME280;36875;49.468;11.200;2024-03-06T06:15:26;98018.38;;;19.49;41.79
50057;BME280;36875;49.468;11.200;2024-03-06T06:17:51;98016.44;;;19.50;41.79
50057;BME280;36875;49.468;11.200;2024-03-06T06:20:18;98024.03;;;19.53;41.72
50057;BME280;36875;49.468;11.200;2024-03-06T06:22:43;98025.66;;;19.54;41.87
50057;BME280;36875;49.468;11.200;2024-03-06T06:25:09;98027.25;;;19.55;42.43
50057;BME280;36875;49.468;11.200;2024-03-06T06:27:35;98032.72;;;19.55;42.40
50057;BME280;36875;49.468;11.200;2024-03-06T06:30:00;98034.63;;;19.54;42.43
50057;BME280;36875;49.468;11.200;2024-03-06T06:32:25;98034.84;;;19.58;42.35
50057;BME280;36875;49.468;11.200;2024-03-06T06:34:50;98040.41;;;19.53;42.60
50057;BME280;36875;49.468;11.200;2024-03-06T06:37:18;98040.59;;;19.56;42.30
50057;BME280;36875;49.468;11.200;2024-03-06T06:39:44;98048.28;;;19.54;42.02
50057;BME280;36875;49.468;11.200;2024-03-06T06:42:10;98048.69;;;19.61;41.78
50057;BME280;36875;49.468;11.200;2024-03-06T06:44:35;98050.91;;;19.73;41.59
50057;BME280;36875;49.468;11.200;2024-03-06T06:47:01;98059.38;;;19.72;41.80
50057;BME280;36875;49.468;11.200;2024-03-06T06:49:26;98059.31;;;19.77;41.94
50057;BME280;36875;49.468;11.200;2024-03-06T06:51:51;98056.06;;;19.75;41.97
50057;BME280;36875;49.468;11.200;2024-03-06T06:54:18;98055.94;;;19.66;42.32
50057;BME280;36875;49.468;11.200;2024-03-06T06:56:44;98060.22;;;19.58;42.29
50057;BME280;36875;49.468;11.200;2024-03-06T06:59:09;98055.97;;;19.52;42.37
50057;BME280;36875;49.468;11.200;2024-03-06T07:01:34;98054.75;;;19.44;42.78
50057;BME280;36875;49.468;11.200;2024-03-06T07:04:00;98058.69;;;19.38;42.62
50057;BME280;36875;49.468;11.200;2024-03-06T07:06:27;98064.25;;;19.33;42.98
50057;BME280;36875;49.468;11.200;2024-03-06T07:08:52;98066.97;;;19.33;42.52
50057;BME280;36875;49.468;11.200;2024-03-06T07:11:19;98079.19;;;19.22;42.65
50057;BME280;36875;49.468;11.200;2024-03-06T07:13:44;98071.13;;;19.17;42.44
50057;BME280;36875;49.468;11.200;2024-03-06T07:16:09;98082.84;;;19.17;42.30
50057;BME280;36875;49.468;11.200;2024-03-06T07:18:35;98078.28;;;19.13;42.29
50057;BME280;36875;49.468;11.200;2024-03-06T07:21:00;98082.72;;;19.09;42.35
50057;BME280;36875;49.468;11.200;2024-03-06T07:23:26;98089.59;;;19.06;42.49
50057;BME280;36875;49.468;11.200;2024-03-06T07:25:51;98093.72;;;19.03;42.30
50057;BME280;36875;49.468;11.200;2024-03-06T07:28:18;98090.00;;;18.99;42.27
50057;BME280;36875;49.468;11.200;2024-03-06T07:30:44;98088.56;;;19.02;42.27
50057;BME280;36875;49.468;11.200;2024-03-06T07:33:09;98094.31;;;19.00;42.19
50057;BME280;36875;49.468;11.200;2024-03-06T07:35:34;98088.97;;;18.95;42.28
50057;BME280;36875;49.468;11.200;2024-03-06T07:38:01;98088.97;;;18.95;42.34
50057;BME280;36875;49.468;11.200;2024-03-06T07:40:26;98093.59;;;18.95;42.09
50057;BME280;36875;49.468;11.200;2024-03-06T07:42:52;98087.84;;;18.96;42.33
50057;BME280;36875;49.468;11.200;2024-03-06T07:45:18;98090.38;;;18.93;42.03
50057;BME280;36875;49.468;11.200;2024-03-06T07:47:45;98081.38;;;18.92;42.40
50057;BME280;36875;49.468;11.200;2024-03-06T07:50:10;98087.13;;;18.91;41.99
50057;BME280;36875;49.468;11.200;2024-03-06T07:52:36;98094.00;;;18.88;42.17
50057;BME280;36875;49.468;11.200;2024-03-06T07:55:01;98095.72;;;18.84;42.09
50057;BME280;36875;49.468;11.200;2024-03-06T07:57:28;98096.81;;;18.83;42.29
50057;BME280;36875;49.468;11.200;2024-03-06T07:59:55;98099.53;;;18.83;42.16
50057;BME280;36875;49.468;11.200;2024-03-06T08:02:22;98103.38;;;18.82;41.98
50057;BME280;36875;49.468;11.200;2024-03-06T08:04:47;98106.38;;;18.80;42.10
50057;BME280;36875;49.468;11.200;2024-03-06T08:07:13;98101.22;;;18.79;42.13
50057;BME280;36875;49.468;11.200;2024-03-06T08:09:38;98098.50;;;18.79;42.28
50057;BME280;36875;49.468;11.200;2024-03-06T08:12:04;98112.66;;;18.81;42.31
50057;BME280;36875;49.468;11.200;2024-03-06T08:14:29;98105.56;;;18.80;41.94
50057;BME280;36875;49.468;11.200;2024-03-06T08:16:54;98114.34;;;18.77;41.93
50057;BME280;36875;49.468;11.200;2024-03-06T08:19:22;98107.25;;;18.76;42.21
50057;BME280;36875;49.468;11.200;2024-03-06T08:21:50;98113.81;;;18.75;41.90
50057;BME280;36875;49.468;11.200;2024-03-06T08:24:15;98117.06;;;18.77;42.05
50057;BME280;36875;49.468;11.200;2024-03-06T08:26:42;98126.34;;;18.76;41.82
50057;BME280;36875;49.468;11.200;2024-03-06T08:29:07;98122.00;;;18.75;42.12
50057;BME280;36875;49.468;11.200;2024-03-06T08:31:33;98126.94;;;18.73;41.89
50057;BME280;36875;49.468;11.200;2024-03-06T08:33:58;98131.06;;;18.70;41.91
50057;BME280;36875;49.468;11.200;2024-03-06T08:36:25;98134.59;;;18.71;41.99
50057;BME280;36875;49.468;11.200;2024-03-06T08:38:50;98135.22;;;18.67;41.81
50057;BME280;36875;49.468;11.200;2024-03-06T08:41:16;98143.41;;;18.67;41.90
50057;BME280;36875;49.468;11.200;2024-03-06T08:43:41;98133.59;;;18.66;41.87
50057;BME280;36875;49.468;11.200;2024-03-06T08:46:07;98146.69;;;18.64;41.71
50057;BME280;36875;49.468;11.200;2024-03-06T08:48:32;98147.50;;;18.65;42.01
50057;BME280;36875;49.468;11.200;2024-03-06T08:50:58;98145.91;;;18.64;41.80
50057;BME280;36875;49.468;11.200;2024-03-06T08:53:25;98140.75;;;18.62;42.09
50057;BME280;36875;49.468;11.200;2024-03-06T08:55:50;98145.69;;;18.60;42.05
50057;BME280;36875;49.468;11.200;2024-03-06T08:58:16;98151.13;;;18.60;41.72
50057;BME280;36875;49.468;11.200;2024-03-06T09:00:41;98151.13;;;18.60;41.75
50057;BME280;36875;49.468;11.200;2024-03-06T09:03:06;98147.91;;;18.58;42.02
50057;BME280;36875;49.468;11.200;2024-03-06T09:05:31;98152.75;;;18.61;41.88
50057;BME280;36875;49.468;11.200;2024-03-06T09:07:57;98154.94;;;18.59;41.78
50057;BME280;36875;49.468;11.200;2024-03-06T09:10:24;98156.59;;;18.60;41.69
50057;BME280;36875;49.468;11.200;2024-03-06T09:12:49;98160.41;;;18.59;41.82
50057;BME280;36875;49.468;11.200;2024-03-06T09:15:15;98162.63;;;18.57;41.73
50057;BME280;36875;49.468;11.200;2024-03-06T09:17:40;98160.19;;;18.56;41.98
50057;BME280;36875;49.468;11.200;2024-03-06T09:20:06;98164.25;;;18.58;41.83
50057;BME280;36875;49.468;11.200;2024-03-06T09:22:35;98164.84;;;18.55;41.98
50057;BME280;36875;49.468;11.200;2024-03-06T09:25:01;98164.84;;;18.55;41.76
50057;BME280;36875;49.468;11.200;2024-03-06T09:27:28;98165.94;;;18.54;41.95
50057;BME280;36875;49.468;11.200;2024-03-06T09:29:53;98161.59;;;18.53;41.62
50057;BME280;36875;49.468;11.200;2024-03-06T09:32:18;98166.22;;;18.53;41.98
50057;BME280;36875;49.468;11.200;2024-03-06T09:34:44;98167.03;;;18.53;41.89
50057;BME280;36875;49.468;11.200;2024-03-06T09:37:10;98172.50;;;18.53;41.51
50057;BME280;36875;49.468;11.200;2024-03-06T09:39:35;98170.88;;;18.52;41.67
50057;BME280;36875;49.468;11.200;2024-03-06T09:42:00;98174.09;;;18.54;41.68
50057;BME280;36875;49.468;11.200;2024-03-06T09:44:28;98174.94;;;18.55;41.57
50057;BME280;36875;49.468;11.200;2024-03-06T09:46:53;98174.09;;;18.54;41.44
50057;BME280;36875;49.468;11.200;2024-03-06T09:49:19;98178.75;;;18.54;41.54
50057;BME280;36875;49.468;11.200;2024-03-06T09:51:45;98178.75;;;18.54;41.74
50057;BME280;36875;49.468;11.200;2024-03-06T09:54:11;98182.56;;;18.53;41.62
50057;BME280;36875;49.468;11.200;2024-03-06T09:56:38;98178.25;;;18.52;41.46
50057;BME280;36875;49.468;11.200;2024-03-06T09:59:03;98180.97;;;18.52;41.43
50057;BME280;36875;49.468;11.200;2024-03-06T10:01:30;98181.75;;;18.52;41.68
50057;BME280;36875;49.468;11.200;2024-03-06T10:03:56;98178.75;;;18.54;41.46
50057;BME280;36875;49.468;11.200;2024-03-06T10:06:21;98177.66;;;18.55;41.35
50057;BME280;36875;49.468;11.200;2024-03-06T10:08:47;98170.78;;;18.57;41.35
50057;BME280;36875;49.468;11.200;2024-03-06T10:11:12;98175.66;;;18.60;41.35
50057;BME280;36875;49.468;11.200;2024-03-06T10:13:37;98176.19;;;18.62;41.15
50057;BME280;36875;49.468;11.200;2024-03-06T10:16:03;98174.53;;;18.61;41.28
50057;BME280;36875;49.468;11.200;2024-03-06T10:18:31;98183.84;;;18.60;41.22
50057;BME280;36875;49.468;11.200;2024-03-06T10:20:57;98186.47;;;18.65;41.38
50057;BME280;36875;49.468;11.200;2024-03-06T10:23:23;98184.19;;;18.73;41.02
50057;BME280;36875;49.468;11.200;2024-03-06T10:25:48;98185.75;;;18.79;41.06
50057;BME280;36875;49.468;11.200;2024-03-06T10:28:20;98191.56;;;18.91;40.96
50057;BME280;36875;49.468;11.200;2024-03-06T10:30:47;98191.19;;;18.98;40.43
50057;BME280;36875;49.468;11.200;2024-03-06T10:33:13;98185.31;;;19.23;41.10
50057;BME280;36875;49.468;11.200;2024-03-06T10:35:41;98186.69;;;19.68;41.13
50057;BME280;36875;49.468;11.200;2024-03-06T10:38:07;98192.53;;;19.47;41.50
50057;BME280;36875;49.468;11.200;2024-03-06T10:40:33;98190.28;;;19.35;41.62
50057;BME280;36875;49.468;11.200;2024-03-06T10:42:59;98192.84;;;19.45;41.77
50057;BME280;36875;49.468;11.200;2024-03-06T10:45:40;98199.31;;;19.50;41.46
50057;BME280;36875;49.468;11.200;2024-03-06T10:48:07;98191.63;;;19.52;41.48
50057;BME280;36875;49.468;11.200;2024-03-06T10:50:33;98194.91;;;19.54;41.65
50057;BME280;36875;49.468;11.200;2024-03-06T10:53:02;98203.09;;;19.54;41.93
50057;BME280;36875;49.468;11.200;2024-03-06T10:55:28;98206.81;;;19.58;42.31
50057;BME280;36875;49.468;11.200;2024-03-06T10:57:55;98207.63;;;19.58;44.45
50057;BME280;36875;49.468;11.200;2024-03-06T11:00:21;98199.06;;;19.65;44.50
50057;BME280;36875;49.468;11.200;2024-03-06T11:02:47;98208.25;;;19.69;44.25
50057;BME280;36875;49.468;11.200;2024-03-06T11:05:14;98206.56;;;19.73;43.99
50057;BME280;36875;49.468;11.200;2024-03-06T11:07:40;98210.38;;;19.72;43.84
50057;BME280;36875;49.468;11.200;2024-03-06T11:10:07;98208.50;;;19.73;43.60
50057;BME280;36875;49.468;11.200;2024-03-06T11:12:33;98207.34;;;19.74;43.43
50057;BME280;36875;49.468;11.200;2024-03-06T11:14:58;98207.94;;;19.71;43.63
50057;BME280;36875;49.468;11.200;2024-03-06T11:17:25;98216.69;;;19.73;43.27
50057;BME280;36875;49.468;11.200;2024-03-06T11:20:12;98216.94;;;19.71;43.25
50057;BME280;36875;49.468;11.200;2024-03-06T11:28:08;98213.13;;;19.72;42.67
50057;BME280;36875;49.468;11.200;2024-03-06T11:30:35;98212.53;;;19.75;42.59
50057;BME280;36875;49.468;11.200;2024-03-06T11:33:11;98208.50;;;19.73;42.50
50057;BME280;36875;49.468;11.200;2024-03-06T11:35:37;98214.22;;;19.71;42.41
50057;BME280;36875;49.468;11.200;2024-03-06T11:38:04;98211.13;;;19.78;41.94
50057;BME280;36875;49.468;11.200;2024-03-06T11:40:31;98211.94;;;19.78;42.17
50057;BME280;36875;49.468;11.200;2024-03-06T11:42:57;98212.53;;;19.75;41.89
50057;BME280;36875;49.468;11.200;2024-03-06T11:45:23;98206.47;;;19.78;41.93
50057;BME280;36875;49.468;11.200;2024-03-06T11:47:56;98210.31;;;19.91;41.65
50057;BME280;36875;49.468;11.200;2024-03-06T11:50:21;98213.75;;;19.97;40.93
50057;BME280;36875;49.468;11.200;2024-03-06T11:52:47;98211.53;;;19.99;41.06
50057;BME280;36875;49.468;11.200;2024-03-06T11:55:12;98206.13;;;20.35;40.41
50057;BME280;36875;49.468;11.200;2024-03-06T11:57:38;98210.06;;;20.57;40.17
50057;BME280;36875;49.468;11.200;2024-03-06T12:00:04;98207.59;;;20.69;40.05
50057;BME280;36875;49.468;11.200;2024-03-06T12:02:33;98207.97;;;20.76;39.96
50057;BME280;36875;49.468;11.200;2024-03-06T12:05:01;98205.31;;;20.85;40.03
50057;BME280;36875;49.468;11.200;2024-03-06T12:07:27;98202.84;;;20.97;39.73
50057;BME280;36875;49.468;11.200;2024-03-06T12:09:52;98201.97;;;21.11;39.43
50057;BME280;36875;49.468;11.200;2024-03-06T12:12:18;98204.97;;;21.23;39.25
50057;BME280;36875;49.468;11.200;2024-03-06T12:14:43;98199.22;;;21.33;39.21
50057;BME280;36875;49.468;11.200;2024-03-06T12:17:20;98203.34;;;21.45;39.03
50057;BME280;36875;49.468;11.200;2024-03-06T12:19:47;98195.97;;;21.54;38.65
50057;BME280;36875;49.468;11.200;2024-03-06T12:22:13;98200.09;;;21.65;38.46
50057;BME280;36875;49.468;11.200;2024-03-06T12:24:40;98190.38;;;21.59;38.64
50057;BME280;36875;49.468;11.200;2024-03-06T12:27:06;98201.56;;;21.71;38.51
50057;BME280;36875;49.468;11.200;2024-03-06T12:29:32;98194.50;;;21.79;38.13
50057;BME280;36875;49.468;11.200;2024-03-06T12:31:58;98197.28;;;21.88;38.09
50057;BME280;36875;49.468;11.200;2024-03-06T12:34:23;98194.72;;;21.91;37.97
50057;BME280;36875;49.468;11.200;2024-03-06T12:36:50;98197.81;;;22.07;37.65
50057;BME280;36875;49.468;11.200;2024-03-06T12:39:16;98206.03;;;22.07;37.63
50057;BME280;36875;49.468;11.200;2024-03-06T12:41:46;98195.22;;;22.02;37.86
50057;BME280;36875;49.468;11.200;2024-03-06T12:44:11;98202.13;;;22.00;37.86
50057;BME280;36875;49.468;11.200;2024-03-06T12:46:37;98198.78;;;22.03;37.81
50057;BME280;36875;49.468;11.200;2024-03-06T12:49:02;98200.72;;;22.02;37.84